Latest Weather Observations for Roseworthy

IDS60801

Issued at 3:51 pm CST Tuesday 16 August 2022 (issued every 10 minutes, with the page automatically refreshed every 10 minutes)

About weather observations | Map of weather stations | Latest weather observations for SA | Other Formats
Station Details ID: 023122 Name: ROSEWORTHY AWS Lat: -34.51 Lon: 138.68 Height: 65.0 m
Data from the previous 72 hours. | See also: Recent months at Roseworthy
Date/Time
CST
Temp
°C
App
Temp
°C
Dew
Point
°C
Rel
Hum
%
Delta-T
°C
Wind Press
QNH
hPa
Press
MSL
hPa
Rain since
9am
mm
Dir  Spd
km/h
Gust
km/h
Spd
kts
Gust
kts
16/03:30pm 13.8 10.6 10.0 78 2.0 WSW 17 24 9 13 1019.0 1019.1 0.0
16/03:00pm 14.4 10.8 9.8 74 2.4 W 19 26 10 14 1018.9 1019.0 0.0
16/02:30pm 15.2 13.2 10.0 71 2.7 W 11 19 6 10 1018.8 1018.9 0.0
16/02:00pm 15.1 13.1 10.1 72 2.6 WNW 11 15 6 8 1018.7 1018.8 0.0
16/01:30pm 15.4 13.9 9.1 66 3.2 SW 7 11 4 6 1018.6 1018.7 0.0
16/01:00pm 16.2 15.0 9.4 64 3.5 NNW 6 9 3 5 1019.1 1019.2 0.0
16/12:30pm 14.1 11.1 7.6 65 3.2 SW 13 17 7 9 1019.3 1019.4 0.0
16/12:00pm 15.1 13.5 8.6 65 3.3 SW 7 13 4 7 1019.7 1019.8 0.0
16/11:30am 14.9 12.2 8.8 67 3.1 SSE 13 20 7 11 1020.1 1020.2 0.0
16/11:00am 14.2 11.5 8.8 70 2.7 S 13 24 7 13 1020.5 1020.6 0.0
16/10:30am 12.3 9.6 9.1 81 1.6 SW 13 19 7 10 1020.7 1020.8 0.0
16/10:00am 12.0 10.4 10.2 89 0.9 SW 9 15 5 8 1020.6 1020.7 0.0
16/09:30am 11.3 10.2 10.7 96 0.3 SSW 7 13 4 7 1020.2 1020.3 0.0
16/09:00am 10.6 10.4 10.3 98 0.2 N 2 7 1 4 1019.8 1019.9 3.0
16/08:30am 9.7 7.9 9.4 98 0.1 WNW 9 11 5 6 1019.8 1019.9 3.0
16/08:00am 8.7 6.2 8.4 98 0.1 WNW 11 15 6 8 1019.5 1019.6 3.0
16/07:30am 7.4 4.3 7.1 98 0.1 NW 13 15 7 8 1019.3 1019.4 3.0
16/07:00am 4.9 1.6 4.6 98 0.1 NNW 11 13 6 7 1018.8 1018.9 3.0
16/06:30am 4.5 1.5 4.2 98 0.1 NW 9 9 5 5 1018.2 1018.3 3.0
16/06:00am 5.9 2.8 5.6 98 0.1 W 11 13 6 7 1017.6 1017.6 3.0
16/05:30am 4.6 1.3 4.3 98 0.1 NW 11 13 6 7 1017.7 1017.7 3.0
16/05:00am 5.1 1.8 4.8 98 0.1 NW 11 13 6 7 1017.1 1017.1 3.0
16/04:30am 6.1 3.1 5.8 98 0.1 WNW 11 13 6 7 1016.3 1016.3 3.0
16/04:00am 6.0 3.7 5.7 98 0.1 NW 7 9 4 5 1015.9 1015.9 3.0
16/03:30am 5.9 3.2 5.6 98 0.1 NW 9 11 5 6 1016.1 1016.1 3.0
16/03:00am 5.7 2.2 5.3 97 0.2 NW 13 13 7 7 1016.0 1016.0 3.0
16/02:30am 5.8 2.7 5.4 97 0.2 NW 11 13 6 7 1016.0 1016.0 2.8
16/02:00am 6.5 3.5 5.9 96 0.3 NW 11 11 6 6 1016.0 1016.0 2.8
16/01:30am 8.1 5.5 7.7 97 0.2 WNW 11 13 6 7 1016.0 1016.0 2.8
16/01:00am 8.8 6.0 8.4 97 0.2 WNW 13 13 7 7 1015.7 1015.7 2.8
16/12:30am 9.5 6.4 9.0 97 0.2 WNW 15 17 8 9 1015.7 1015.7 2.8
16/12:00am 8.9 6.0 8.3 96 0.3 W 13 17 7 9 1015.6 1015.6 2.8
 
Date/Time
CST
Temp
°C
App
Temp
°C
Dew
Point
°C
Rel
Hum
%
Delta-T
°C
Wind Press
QNH
hPa
Press
MSL
hPa
Rain since
9am
mm
Dir  Spd
km/h
Gust
km/h
Spd
kts
Gust
kts
15/11:30pm 9.7 7.5 9.2 97 0.2 WNW 11 15 6 8 1015.2 1015.2 2.8
15/11:00pm 9.5 8.0 9.0 97 0.2 WNW 7 9 4 5 1015.0 1015.0 2.8
15/10:30pm 9.3 7.3 8.8 97 0.2 NW 9 11 5 6 1014.7 1014.7 2.8
15/10:00pm 9.2 7.6 8.7 97 0.2 NW 7 9 4 5 1014.2 1014.2 2.8
15/09:30pm 8.7 7.0 8.3 97 0.2 NW 7 9 4 5 1014.4 1014.4 2.8
15/09:00pm 9.1 7.1 8.6 97 0.2 NW 9 11 5 6 1014.1 1014.1 2.8
15/08:30pm 8.3 6.0 7.5 95 0.4 W 9 9 5 5 1013.7 1013.7 2.8
15/08:00pm 9.8 8.3 9.2 96 0.3 W 7 9 4 5 1013.5 1013.5 2.8
15/07:30pm 10.1 7.9 9.5 96 0.3 WSW 11 13 6 7 1013.0 1013.1 2.8
15/07:00pm 10.4 8.7 9.8 96 0.3 WSW 9 13 5 7 1012.5 1012.6 2.8
15/06:30pm 8.4 5.7 7.3 93 0.5 WNW 11 13 6 7 1011.9 1012.0 0.0
15/06:00pm 9.5 7.0 8.1 91 0.7 W 11 13 6 7 1011.4 1011.5 0.0
15/05:30pm 10.8 7.7 8.9 88 0.9 W 15 19 8 10 1010.9 1011.0 0.0
15/05:00pm 12.2 8.5 9.4 83 1.4 W 19 24 10 13 1010.4 1010.5 0.0
15/04:30pm 13.0 9.8 10.0 82 1.5 W 17 20 9 11 1010.1 1010.2 0.0
15/04:00pm 12.5 9.6 9.5 82 1.5 W 15 20 8 11 1009.9 1010.0 0.0
15/03:30pm 12.7 9.7 9.2 79 1.8 WSW 15 20 8 11 1009.7 1009.8 0.0
15/03:00pm 13.4 10.1 9.5 77 2.0 W 17 24 9 13 1009.5 1009.6 0.0
15/02:30pm 14.0 10.6 9.2 73 2.5 SW 17 20 9 11 1009.3 1009.4 0.0
15/02:00pm 13.8 10.1 9.5 75 2.2 WSW 19 26 10 14 1009.3 1009.4 0.0
15/01:30pm 13.9 10.4 8.7 71 2.6 WSW 17 22 9 12 1009.4 1009.5 0.0
15/01:00pm 14.0 10.3 10.0 77 2.1 WSW 20 26 11 14 1009.8 1009.9 0.0
15/12:30pm 13.3 9.6 9.4 77 2.0 WSW 19 24 10 13 1009.9 1010.0 0.0
15/12:00pm 13.8 11.1 10.4 80 1.8 W 15 20 8 11 1010.2 1010.3 0.0
15/11:30am 13.6 10.6 10.6 82 1.6 WNW 17 20 9 11 1010.3 1010.4 0.0
15/11:00am 12.9 9.9 10.8 87 1.1 W 17 20 9 11 1010.5 1010.6 0.0
15/10:30am 12.7 10.5 10.9 89 0.9 WNW 13 17 7 9 1010.6 1010.7 0.0
15/10:00am 11.7 9.4 10.3 91 0.7 WNW 13 19 7 10 1010.8 1010.9 0.0
15/09:30am 11.2 8.0 9.8 91 0.7 NW 17 22 9 12 1011.0 1011.1 0.0
15/09:00am 11.0 8.6 9.9 93 0.6 NW 13 15 7 8 1010.8 1010.9 0.2
15/08:30am 10.5 9.2 9.9 96 0.3 N 7 11 4 6 1010.7 1010.8 0.2
15/08:00am 8.9 6.9 8.5 97 0.2 N 9 11 5 6 1010.6 1010.7 0.2
15/07:30am 6.9 4.3 6.3 96 0.3 N 9 9 5 5 1010.6 1010.7 0.2
15/07:00am 7.5 6.8 6.9 96 0.3 CALM 0 6 0 3 1010.4 1010.5 0.2
15/06:30am 7.9 5.6 7.3 96 0.3 N 9 11 5 6 1010.4 1010.5 0.2
15/06:00am 8.2 5.6 7.6 96 0.3 N 11 13 6 7 1010.5 1010.6 0.2
15/05:30am 8.3 5.7 7.7 96 0.3 N 11 13 6 7 1010.4 1010.5 0.2
15/05:00am 8.2 5.6 7.6 96 0.3 N 11 13 6 7 1010.3 1010.4 0.2
15/04:30am 8.1 5.1 7.7 97 0.2 N 13 13 7 7 1010.4 1010.5 0.2
15/04:00am 8.4 5.8 7.8 96 0.3 N 11 13 6 7 1010.2 1010.3 0.2
15/03:30am 8.7 5.8 8.1 96 0.3 N 13 15 7 8 1010.4 1010.5 0.2
15/03:00am 8.8 6.3 8.2 96 0.3 N 11 13 6 7 1010.8 1010.9 0.2
15/02:30am 9.0 6.5 8.4 96 0.3 N 11 15 6 8 1011.1 1011.2 0.2
15/02:00am 9.4 6.7 8.8 96 0.3 N 13 17 7 9 1011.6 1011.7 0.2
15/01:30am 9.6 6.9 9.0 96 0.3 NNW 13 17 7 9 1011.9 1012.0 0.2
15/01:00am 9.0 6.2 8.4 96 0.3 NNW 13 13 7 7 1012.4 1012.5 0.0
15/12:30am 8.6 5.7 8.2 97 0.2 NNW 13 15 7 8 1012.5 1012.6 0.0
15/12:00am 8.1 5.1 7.5 96 0.3 N 13 13 7 7 1012.6 1012.7 0.0
 
Date/Time
CST
Temp
°C
App
Temp
°C
Dew
Point
°C
Rel
Hum
%
Delta-T
°C
Wind Press
QNH
hPa
Press
MSL
hPa
Rain since
9am
mm
Dir  Spd
km/h
Gust
km/h
Spd
kts
Gust
kts
14/11:30pm 8.3 5.3 7.7 96 0.3 NNW 13 15 7 8 1012.8 1012.9 0.0
14/11:00pm 8.4 5.4 7.8 96 0.3 NNW 13 17 7 9 1013.1 1013.2 0.0
14/10:30pm 8.0 4.5 7.4 96 0.3 N 15 15 8 8 1013.2 1013.3 0.0
14/10:00pm 7.8 4.7 7.4 97 0.2 N 13 15 7 8 1013.3 1013.4 0.0
14/09:30pm 7.5 4.0 7.1 97 0.2 N 15 19 8 10 1013.6 1013.6 0.0
14/09:00pm 6.8 3.5 6.4 97 0.2 NNE 13 15 7 8 1013.7 1013.7 0.0
14/08:30pm 7.7 3.8 7.3 97 0.2 N 17 17 9 9 1013.9 1013.9 0.0
14/08:00pm 6.6 3.9 5.7 94 0.4 N 9 11 5 6 1013.7 1013.7 0.0
14/07:30pm 8.3 7.6 7.1 92 0.6 CALM 0 0 0 0 1013.7 1013.7 0.0
14/07:00pm 10.6 10.5 9.5 93 0.6 CALM 0 0 0 0 1013.5 1013.5 0.0
14/06:30pm 11.3 11.3 9.9 91 0.7 CALM 0 0 0 0 1013.3 1013.4 0.0
14/06:00pm 11.7 10.4 9.9 89 0.9 WSW 7 11 4 6 1013.2 1013.3 0.0
14/05:30pm 12.5 10.9 10.2 86 1.2 WSW 9 13 5 7 1013.2 1013.3 0.0
14/05:00pm 12.5 10.0 9.7 83 1.4 SW 13 17 7 9 1013.2 1013.3 0.0
14/04:30pm 13.7 10.2 10.3 80 1.8 SW 19 24 10 13 1013.1 1013.2 0.0
14/04:00pm 13.8 10.9 9.8 77 2.1 SW 15 19 8 10 1012.9 1013.0 0.0
14/03:30pm 14.8 11.0 9.2 69 2.9 SW 19 26 10 14 1013.2 1013.3 0.0
14/03:00pm 13.8 10.5 9.5 75 2.2 WSW 17 24 9 13 1013.3 1013.4 0.0
14/02:30pm 14.0 10.2 9.0 72 2.5 W 19 26 10 14 1013.6 1013.6 0.0
14/02:00pm 15.1 11.1 10.3 73 2.5 WSW 22 28 12 15 1013.8 1013.8 0.0
14/01:30pm 14.9 9.9 9.5 70 2.8 W 26 33 14 18 1014.2 1014.2 0.0
14/01:00pm 13.3 9.1 9.7 79 1.8 W 22 28 12 15 1014.5 1014.5 0.0
14/12:30pm 13.5 9.8 10.1 80 1.8 W 20 30 11 16 1014.9 1014.9 0.0
14/12:00pm 13.2 8.9 9.3 77 2.0 W 22 28 12 15 1015.0 1015.0 0.0
14/11:30am 13.1 9.3 9.9 81 1.6 W 20 28 11 15 1015.2 1015.2 0.0
14/11:00am 12.8 9.1 10.2 84 1.3 W 20 24 11 13 1015.3 1015.3 0.0
14/10:30am 12.3 10.0 11.8 97 0.3 WNW 15 24 8 13 1015.5 1015.5 0.0
14/10:00am 11.5 9.0 11.2 98 0.2 WNW 15 20 8 11 1015.8 1015.8 0.0
14/09:30am 11.4 9.3 11.1 98 0.2 WNW 13 20 7 11 1015.8 1015.8 0.0
14/09:00am 11.2 9.0 10.9 98 0.2 WNW 13 19 7 10 1015.8 1015.8 1.6
14/08:30am 9.5 6.9 9.2 98 0.1 NW 13 17 7 9 1015.6 1015.6 1.6
14/08:00am 8.3 5.8 8.0 98 0.1 NW 11 17 6 9 1015.3 1015.3 1.6
14/07:30am 7.8 4.4 7.5 98 0.1 NNW 15 19 8 10 1015.1 1015.1 1.4
14/07:00am 7.2 4.0 6.9 98 0.1 NNW 13 17 7 9 1014.8 1014.8 1.4
14/06:30am 6.4 3.0 6.1 98 0.1 NNW 13 15 7 8 1014.5 1014.5 1.4
14/06:00am 5.9 2.4 5.6 98 0.1 NNW 13 15 7 8 1014.1 1014.1 1.4
14/05:30am 6.5 3.2 6.2 98 0.1 NNW 13 13 7 7 1013.8 1013.8 1.4
14/05:00am 7.9 5.3 7.6 98 0.1 NW 11 13 6 7 1013.9 1013.9 1.4
14/04:30am 7.8 5.1 7.5 98 0.1 NW 11 15 6 8 1013.8 1013.8 1.4
14/04:00am 6.5 3.5 6.2 98 0.1 NNW 11 13 6 7 1013.7 1013.7 1.4
14/03:30am 7.2 4.4 6.9 98 0.1 NNW 11 13 6 7 1013.6 1013.6 1.4
14/03:00am 6.5 3.5 6.2 98 0.1 NNW 11 13 6 7 1013.6 1013.6 1.4
14/02:30am 5.9 2.8 5.5 97 0.2 NW 11 13 6 7 1013.9 1013.9 1.4
14/02:00am 6.7 4.5 6.3 97 0.2 NW 7 11 4 6 1014.2 1014.2 1.4
14/01:30am 7.5 4.8 7.2 98 0.1 NW 11 15 6 8 1014.3 1014.3 1.4
14/01:00am 5.9 2.8 5.5 97 0.2 NW 11 13 6 7 1014.4 1014.4 1.4
14/12:30am 6.6 3.3 6.2 97 0.2 NW 13 15 7 8 1014.4 1014.4 1.4
14/12:00am 7.2 4.4 6.8 97 0.2 NW 11 11 6 6 1014.4 1014.4 1.4
 
Date/Time
CST
Temp
°C
App
Temp
°C
Dew
Point
°C
Rel
Hum
%
Delta-T
°C
Wind Press
QNH
hPa
Press
MSL
hPa
Rain since
9am
mm
Dir  Spd
km/h
Gust
km/h
Spd
kts
Gust
kts
13/11:30pm 8.4 6.2 8.0 97 0.2 NW 9 11 5 6 1014.6 1014.6 1.4
13/11:00pm 8.4 5.9 8.1 98 0.1 NW 11 13 6 7 1014.6 1014.6 1.4
13/10:30pm 8.2 5.6 7.9 98 0.1 NW 11 13 6 7 1014.8 1014.8 1.4
13/10:00pm 7.5 4.4 7.1 97 0.2 NNW 13 15 7 8 1014.8 1014.8 1.4
13/09:30pm 7.6 4.5 7.3 98 0.1 NNW 13 15 7 8 1014.9 1014.9 1.4
13/09:00pm 7.5 4.7 7.1 97 0.2 NW 11 13 6 7 1014.8 1014.8 1.4
13/08:30pm 6.9 3.6 6.5 97 0.2 NNW 13 15 7 8 1014.6 1014.6 1.4
13/08:00pm 6.9 4.0 6.5 97 0.2 NNW 11 13 6 7 1014.3 1014.3 1.4
13/07:30pm 7.2 3.9 6.6 96 0.3 NW 13 13 7 7 1014.1 1014.1 1.4
13/07:00pm 7.3 4.4 6.6 95 0.3 NW 11 13 6 7 1013.9 1013.9 1.4
13/06:30pm 8.2 5.8 7.1 93 0.5 WNW 9 11 5 6 1013.7 1013.7 1.4
13/06:00pm 9.6 7.2 8.5 93 0.5 WNW 11 13 6 7 1013.5 1013.5 1.4
13/05:30pm 11.0 8.1 9.8 92 0.6 WNW 15 17 8 9 1013.1 1013.2 1.4
13/05:00pm 12.5 8.8 9.5 82 1.5 W 19 24 10 13 1013.1 1013.2 1.4
13/04:30pm 12.7 8.9 9.2 79 1.8 WSW 19 26 10 14 1012.8 1012.9 1.4
13/04:00pm 13.0 9.2 8.9 76 2.1 WSW 19 26 10 14 1012.8 1012.9 1.4

Other formats

Comma delimited format used in spreadsheet applications
http://www.bom.gov.au/fwo/IDS60801/IDS60801.95671.axf

JavaScript Object Notation format (JSON) in row-major order
http://www.bom.gov.au/fwo/IDS60801/IDS60801.95671.json

Data quality

Most of these data are generated automatically and are frequently updated. Quality checks on data are not normally performed. It is possible for incorrect values to appear. Refer to information at About Latest Weather Observations and please check the disclaimer before using these data.